Terminal Aerodrome Forecast
Issued by NWS Charleston, WV

Home | Current Version | Previous Version | Text Only | Print | Product List | Glossary On
Versions: 1 2 3 4 5 6 7 8 9 10 11 12 13 14 15 16 17 18 19 20 21 22
923
FTUS41 KRLX 251159
TAFEKN
TAF
KEKN 251159Z 2512/2612 00000KT P6SM OVC025
     FM251500 30004KT 5SM -SHRA OVC020
     FM252100 31007KT 3SM SHRA OVC008
     FM260100 30004KT P6SM BKN015
     FM261000 29003KT P6SM BKN030=

USA.gov is the U.S. government's official web portal to all federal, state and local government web resources and services.